sensor_id;sensor_type;location;lat;lon;timestamp;pressure;altitude;pressure_sealevel;temperature;humidity
21401;BME280;18038;50.166;18.908;2024-02-26T00:02:35;97012.69;;;4.81;73.50
21401;BME280;18038;50.166;18.908;2024-02-26T00:05:45;97008.94;;;4.76;73.42
21401;BME280;18038;50.166;18.908;2024-02-26T00:08:52;97012.69;;;4.73;73.53
21401;BME280;18038;50.166;18.908;2024-02-26T00:12:03;97011.72;;;4.74;73.67
21401;BME280;18038;50.166;18.908;2024-02-26T00:15:11;97010.69;;;4.83;73.34
21401;BME280;18038;50.166;18.908;2024-02-26T00:18:19;97005.25;;;4.85;73.14
21401;BME280;18038;50.166;18.908;2024-02-26T00:21:28;97013.63;;;4.88;72.70
21401;BME280;18038;50.166;18.908;2024-02-26T00:24:36;97014.94;;;4.92;72.99
21401;BME280;18038;50.166;18.908;2024-02-26T00:27:46;97013.16;;;4.85;72.43
21401;BME280;18038;50.166;18.908;2024-02-26T00:30:54;97014.00;;;4.77;73.34
21401;BME280;18038;50.166;18.908;2024-02-26T00:34:01;97014.84;;;4.69;73.51
21401;BME280;18038;50.166;18.908;2024-02-26T00:37:10;97009.94;;;4.58;73.90
21401;BME280;18038;50.166;18.908;2024-02-26T00:40:17;97013.31;;;4.44;74.01
21401;BME280;18038;50.166;18.908;2024-02-26T00:43:28;97008.72;;;4.29;75.17
21401;BME280;18038;50.166;18.908;2024-02-26T00:46:35;97017.00;;;4.18;76.17
21401;BME280;18038;50.166;18.908;2024-02-26T00:49:43;97015.19;;;4.11;76.23
21401;BME280;18038;50.166;18.908;2024-02-26T00:52:51;97010.75;;;4.03;76.89
21401;BME280;18038;50.166;18.908;2024-02-26T00:55:59;97018.00;;;4.01;77.43
21401;BME280;18038;50.166;18.908;2024-02-26T00:59:09;97021.47;;;4.01;77.60
21401;BME280;18038;50.166;18.908;2024-02-26T01:06:07;97017.34;;;4.07;77.26
21401;BME280;18038;50.166;18.908;2024-02-26T01:09:15;97017.97;;;4.09;77.37
21401;BME280;18038;50.166;18.908;2024-02-26T01:12:22;97016.34;;;4.08;77.48
21401;BME280;18038;50.166;18.908;2024-02-26T01:15:33;97013.56;;;4.09;77.67
21401;BME280;18038;50.166;18.908;2024-02-26T01:18:41;97013.38;;;4.11;77.30
21401;BME280;18038;50.166;18.908;2024-02-26T01:21:49;97016.00;;;4.11;77.18
21401;BME280;18038;50.166;18.908;2024-02-26T01:24:56;97011.22;;;4.06;77.68
21401;BME280;18038;50.166;18.908;2024-02-26T01:28:05;97009.44;;;4.07;77.90
21401;BME280;18038;50.166;18.908;2024-02-26T01:31:15;97011.75;;;4.10;77.71
21401;BME280;18038;50.166;18.908;2024-02-26T01:34:23;97013.38;;;4.11;77.55
21401;BME280;18038;50.166;18.908;2024-02-26T01:37:30;97005.13;;;4.14;77.47
21401;BME280;18038;50.166;18.908;2024-02-26T01:40:38;97010.91;;;4.18;77.31
21401;BME280;18038;50.166;18.908;2024-02-26T01:43:46;96995.25;;;4.16;77.37
21401;BME280;18038;50.166;18.908;2024-02-26T01:46:57;96998.69;;;4.17;77.20
21401;BME280;18038;50.166;18.908;2024-02-26T01:50:06;96998.06;;;4.15;77.65
21401;BME280;18038;50.166;18.908;2024-02-26T01:53:17;97004.31;;;4.14;77.60
21401;BME280;18038;50.166;18.908;2024-02-26T01:56:27;97001.66;;;4.14;77.62
21401;BME280;18038;50.166;18.908;2024-02-26T01:59:37;97004.31;;;4.14;77.22
21401;BME280;18038;50.166;18.908;2024-02-26T02:02:49;97003.31;;;4.06;77.74
21401;BME280;18038;50.166;18.908;2024-02-26T02:05:59;97002.69;;;4.04;77.92
21401;BME280;18038;50.166;18.908;2024-02-26T02:09:08;97001.69;;;4.05;78.45
21401;BME280;18038;50.166;18.908;2024-02-26T02:12:16;96982.75;;;4.10;77.87
21401;BME280;18038;50.166;18.908;2024-02-26T02:15:25;96985.72;;;4.07;77.41
21401;BME280;18038;50.166;18.908;2024-02-26T02:18:36;96995.59;;;4.05;77.99
21401;BME280;18038;50.166;18.908;2024-02-26T02:21:46;96997.56;;;4.03;78.14
21401;BME280;18038;50.166;18.908;2024-02-26T02:24:54;96996.13;;;3.92;78.19
21401;BME280;18038;50.166;18.908;2024-02-26T02:28:01;97005.66;;;3.85;78.79
21401;BME280;18038;50.166;18.908;2024-02-26T02:31:10;96997.13;;;3.83;78.56
21401;BME280;18038;50.166;18.908;2024-02-26T02:34:18;97006.19;;;3.80;78.84
21401;BME280;18038;50.166;18.908;2024-02-26T02:37:29;96997.78;;;3.77;79.44
21401;BME280;18038;50.166;18.908;2024-02-26T02:40:37;96999.25;;;3.71;79.17
21401;BME280;18038;50.166;18.908;2024-02-26T02:43:44;96993.19;;;3.54;79.87
21401;BME280;18038;50.166;18.908;2024-02-26T02:46:52;96992.03;;;3.40;80.84
21401;BME280;18038;50.166;18.908;2024-02-26T02:50:00;96991.38;;;3.30;81.81
21401;BME280;18038;50.166;18.908;2024-02-26T02:53:10;96991.69;;;3.27;82.42
21401;BME280;18038;50.166;18.908;2024-02-26T02:56:20;96999.88;;;3.16;82.64
21401;BME280;18038;50.166;18.908;2024-02-26T02:59:28;96983.75;;;3.11;83.58
21401;BME280;18038;50.166;18.908;2024-02-26T03:02:35;96979.31;;;3.03;84.17
21401;BME280;18038;50.166;18.908;2024-02-26T03:05:43;96978.97;;;2.98;84.45
21401;BME280;18038;50.166;18.908;2024-02-26T03:08:53;96972.06;;;2.89;84.72
21401;BME280;18038;50.166;18.908;2024-02-26T03:12:02;96972.53;;;2.84;85.47
21401;BME280;18038;50.166;18.908;2024-02-26T03:15:10;96967.78;;;2.80;85.88
21401;BME280;18038;50.166;18.908;2024-02-26T03:18:18;96970.22;;;2.81;86.26
21401;BME280;18038;50.166;18.908;2024-02-26T03:21:26;96973.53;;;2.83;85.91
21401;BME280;18038;50.166;18.908;2024-02-26T03:24:37;96968.75;;;2.79;86.22
21401;BME280;18038;50.166;18.908;2024-02-26T03:27:44;96969.75;;;2.77;86.51
21401;BME280;18038;50.166;18.908;2024-02-26T03:30:52;96964.31;;;2.79;86.42
21401;BME280;18038;50.166;18.908;2024-02-26T03:34:00;96960.53;;;2.82;86.52
21401;BME280;18038;50.166;18.908;2024-02-26T03:37:08;96965.97;;;2.80;86.41
21401;BME280;18038;50.166;18.908;2024-02-26T03:40:18;96969.75;;;2.77;86.59
21401;BME280;18038;50.166;18.908;2024-02-26T03:43:26;96956.41;;;2.79;86.79
21401;BME280;18038;50.166;18.908;2024-02-26T03:46:34;96954.13;;;2.84;86.82
21401;BME280;18038;50.166;18.908;2024-02-26T03:49:42;96941.16;;;2.91;86.11
21401;BME280;18038;50.166;18.908;2024-02-26T03:52:49;96949.22;;;2.97;85.28
21401;BME280;18038;50.166;18.908;2024-02-26T03:56:03;96949.06;;;2.99;85.45
21401;BME280;18038;50.166;18.908;2024-02-26T03:59:11;96946.59;;;2.97;85.41
21401;BME280;18038;50.166;18.908;2024-02-26T04:02:19;96950.06;;;3.06;85.41
21401;BME280;18038;50.166;18.908;2024-02-26T04:05:27;96913.72;;;3.02;84.91
21401;BME280;18038;50.166;18.908;2024-02-26T04:08:34;96941.19;;;3.24;84.12
21401;BME280;18038;50.166;18.908;2024-02-26T04:11:44;96936.25;;;3.29;83.19
21401;BME280;18038;50.166;18.908;2024-02-26T04:14:53;96937.88;;;3.30;83.18
21401;BME280;18038;50.166;18.908;2024-02-26T04:18:00;96927.69;;;3.27;83.29
21401;BME280;18038;50.166;18.908;2024-02-26T04:21:08;96934.28;;;3.31;83.23
21401;BME280;18038;50.166;18.908;2024-02-26T04:24:15;96936.25;;;3.29;83.25
21401;BME280;18038;50.166;18.908;2024-02-26T04:27:26;96935.91;;;3.32;82.61
21401;BME280;18038;50.166;18.908;2024-02-26T04:30:33;96927.88;;;3.33;82.80
21401;BME280;18038;50.166;18.908;2024-02-26T04:33:42;96937.25;;;3.36;83.08
21401;BME280;18038;50.166;18.908;2024-02-26T04:36:49;96924.91;;;3.28;82.95
21401;BME280;18038;50.166;18.908;2024-02-26T04:39:58;96920.13;;;3.24;83.34
21401;BME280;18038;50.166;18.908;2024-02-26T04:43:09;96923.25;;;3.19;83.96
21401;BME280;18038;50.166;18.908;2024-02-26T04:46:17;96915.69;;;3.16;83.97
21401;BME280;18038;50.166;18.908;2024-02-26T04:49:25;96916.34;;;3.18;83.91
21401;BME280;18038;50.166;18.908;2024-02-26T04:52:33;96916.84;;;3.13;84.01
21401;BME280;18038;50.166;18.908;2024-02-26T04:55:41;96917.00;;;3.28;83.57
21401;BME280;18038;50.166;18.908;2024-02-26T04:58:51;96916.00;;;3.37;82.81
21401;BME280;18038;50.166;18.908;2024-02-26T05:01:59;96920.97;;;3.40;82.60
21401;BME280;18038;50.166;18.908;2024-02-26T05:05:08;96920.31;;;3.38;82.04
21401;BME280;18038;50.166;18.908;2024-02-26T05:08:16;96916.84;;;3.38;82.04
21401;BME280;18038;50.166;18.908;2024-02-26T05:11:25;96916.69;;;3.31;82.23
21401;BME280;18038;50.166;18.908;2024-02-26T05:14:34;96926.22;;;3.32;82.37
21401;BME280;18038;50.166;18.908;2024-02-26T05:17:42;96935.78;;;3.33;82.16
21401;BME280;18038;50.166;18.908;2024-02-26T05:20:50;96936.72;;;3.32;82.48
21401;BME280;18038;50.166;18.908;2024-02-26T05:23:58;96933.28;;;3.32;82.04
21401;BME280;18038;50.166;18.908;2024-02-26T05:27:06;96924.56;;;3.31;82.22
21401;BME280;18038;50.166;18.908;2024-02-26T05:30:17;96934.94;;;3.33;82.44
21401;BME280;18038;50.166;18.908;2024-02-26T05:33:25;96928.69;;;3.34;82.84
21401;BME280;18038;50.166;18.908;2024-02-26T05:36:33;96932.81;;;3.36;82.16
21401;BME280;18038;50.166;18.908;2024-02-26T05:39:40;96937.25;;;3.36;82.82
21401;BME280;18038;50.166;18.908;2024-02-26T05:42:49;96936.44;;;3.43;82.37
21401;BME280;18038;50.166;18.908;2024-02-26T05:45:58;96935.75;;;3.50;82.14
21401;BME280;18038;50.166;18.908;2024-02-26T05:49:06;96942.84;;;3.49;81.92
21401;BME280;18038;50.166;18.908;2024-02-26T05:52:14;96943.31;;;3.53;81.81
21401;BME280;18038;50.166;18.908;2024-02-26T05:55:22;96948.25;;;3.56;81.84
21401;BME280;18038;50.166;18.908;2024-02-26T05:58:29;96949.22;;;3.63;82.08
21401;BME280;18038;50.166;18.908;2024-02-26T06:01:40;96952.53;;;3.65;82.11
21401;BME280;18038;50.166;18.908;2024-02-26T06:04:48;96948.38;;;3.79;81.69
21401;BME280;18038;50.166;18.908;2024-02-26T06:07:56;96950.84;;;3.89;81.21
21401;BME280;18038;50.166;18.908;2024-02-26T06:11:05;96949.50;;;3.93;81.16
21401;BME280;18038;50.166;18.908;2024-02-26T06:14:14;96954.09;;;4.07;80.66
21401;BME280;18038;50.166;18.908;2024-02-26T06:17:25;96958.81;;;4.28;80.24
21401;BME280;18038;50.166;18.908;2024-02-26T06:20:33;96961.53;;;4.43;79.86
21401;BME280;18038;50.166;18.908;2024-02-26T06:23:40;96963.78;;;4.54;78.87
21401;BME280;18038;50.166;18.908;2024-02-26T06:26:48;96964.38;;;4.81;78.37
21401;BME280;18038;50.166;18.908;2024-02-26T06:29:56;96963.56;;;5.03;77.36
21401;BME280;18038;50.166;18.908;2024-02-26T06:33:07;96968.75;;;5.19;76.46
21401;BME280;18038;50.166;18.908;2024-02-26T06:36:15;96973.91;;;5.36;76.16
21401;BME280;18038;50.166;18.908;2024-02-26T06:39:23;96967.78;;;5.58;74.91
21401;BME280;18038;50.166;18.908;2024-02-26T06:42:31;96964.25;;;5.66;74.30
21401;BME280;18038;50.166;18.908;2024-02-26T06:45:39;96972.13;;;5.74;73.58
21401;BME280;18038;50.166;18.908;2024-02-26T06:48:49;96973.06;;;5.96;72.62
21401;BME280;18038;50.166;18.908;2024-02-26T06:51:59;96974.47;;;6.22;71.40
21401;BME280;18038;50.166;18.908;2024-02-26T06:55:07;96979.09;;;6.49;70.83
21401;BME280;18038;50.166;18.908;2024-02-26T06:58:16;96977.69;;;6.83;69.01
21401;BME280;18038;50.166;18.908;2024-02-26T07:01:23;96980.63;;;7.25;67.42
21401;BME280;18038;50.166;18.908;2024-02-26T07:04:34;96979.03;;;7.52;66.69
21401;BME280;18038;50.166;18.908;2024-02-26T07:07:42;96975.69;;;7.65;66.02
21401;BME280;18038;50.166;18.908;2024-02-26T07:10:50;96985.50;;;7.43;66.42
21401;BME280;18038;50.166;18.908;2024-02-26T07:13:57;96991.28;;;7.31;66.88
21401;BME280;18038;50.166;18.908;2024-02-26T07:17:05;96989.38;;;7.47;66.42
21401;BME280;18038;50.166;18.908;2024-02-26T07:20:16;96981.94;;;7.35;66.38
21401;BME280;18038;50.166;18.908;2024-02-26T07:23:25;96984.78;;;7.34;66.96
21401;BME280;18038;50.166;18.908;2024-02-26T07:26:32;96980.81;;;7.45;65.95
21401;BME280;18038;50.166;18.908;2024-02-26T07:29:41;96973.03;;;7.65;65.48
21401;BME280;18038;50.166;18.908;2024-02-26T07:32:48;96987.63;;;7.54;66.55
21401;BME280;18038;50.166;18.908;2024-02-26T07:35:59;96991.03;;;7.97;64.71
21401;BME280;18038;50.166;18.908;2024-02-26T07:39:06;96982.13;;;8.33;63.38
21401;BME280;18038;50.166;18.908;2024-02-26T07:42:14;96955.13;;;8.64;61.44
21401;BME280;18038;50.166;18.908;2024-02-26T07:45:22;96979.47;;;9.23;60.57
21401;BME280;18038;50.166;18.908;2024-02-26T07:48:30;96979.69;;;9.28;60.60
21401;BME280;18038;50.166;18.908;2024-02-26T07:51:40;96985.25;;;9.66;59.03
21401;BME280;18038;50.166;18.908;2024-02-26T07:54:48;96981.53;;;10.20;58.11
21401;BME280;18038;50.166;18.908;2024-02-26T07:57:56;96981.66;;;10.72;56.61
21401;BME280;18038;50.166;18.908;2024-02-26T08:01:04;96983.53;;;11.17;55.17
21401;BME280;18038;50.166;18.908;2024-02-26T08:04:11;96984.16;;;11.19;54.72
21401;BME280;18038;50.166;18.908;2024-02-26T08:07:22;96988.47;;;10.41;56.75
21401;BME280;18038;50.166;18.908;2024-02-26T08:10:30;96986.06;;;9.93;57.68
21401;BME280;18038;50.166;18.908;2024-02-26T08:13:38;96993.00;;;9.48;59.71
21401;BME280;18038;50.166;18.908;2024-02-26T08:16:45;96993.63;;;9.56;59.37
21401;BME280;18038;50.166;18.908;2024-02-26T08:19:53;96983.00;;;9.50;60.53
21401;BME280;18038;50.166;18.908;2024-02-26T08:23:04;96997.69;;;9.39;60.57
21401;BME280;18038;50.166;18.908;2024-02-26T08:26:12;96993.38;;;9.38;60.96
21401;BME280;18038;50.166;18.908;2024-02-26T08:29:19;96993.03;;;9.74;60.09
21401;BME280;18038;50.166;18.908;2024-02-26T08:32:27;96989.31;;;10.42;58.18
21401;BME280;18038;50.166;18.908;2024-02-26T08:35:34;96998.22;;;10.87;56.79
21401;BME280;18038;50.166;18.908;2024-02-26T08:38:45;96977.06;;;11.38;55.66
21401;BME280;18038;50.166;18.908;2024-02-26T08:41:52;97000.41;;;12.49;52.52
21401;BME280;18038;50.166;18.908;2024-02-26T08:45:01;96984.81;;;13.20;50.67
21401;BME280;18038;50.166;18.908;2024-02-26T08:48:09;96963.75;;;14.19;48.35
21401;BME280;18038;50.166;18.908;2024-02-26T08:51:17;96987.75;;;14.73;46.63
21401;BME280;18038;50.166;18.908;2024-02-26T08:54:27;96986.94;;;14.02;48.42
21401;BME280;18038;50.166;18.908;2024-02-26T08:57:36;96991.81;;;14.75;47.45
21401;BME280;18038;50.166;18.908;2024-02-26T09:00:43;96997.28;;;15.33;45.66
21401;BME280;18038;50.166;18.908;2024-02-26T09:03:51;96999.66;;;15.58;44.75
21401;BME280;18038;50.166;18.908;2024-02-26T09:06:59;97008.59;;;14.82;46.26
21401;BME280;18038;50.166;18.908;2024-02-26T09:10:10;96999.50;;;14.13;48.46
21401;BME280;18038;50.166;18.908;2024-02-26T09:13:17;97002.94;;;13.78;48.88
21401;BME280;18038;50.166;18.908;2024-02-26T09:16:25;96999.97;;;13.07;51.17
21401;BME280;18038;50.166;18.908;2024-02-26T09:19:33;96997.91;;;12.91;52.38
21401;BME280;18038;50.166;18.908;2024-02-26T09:22:41;97001.31;;;12.43;52.85
21401;BME280;18038;50.166;18.908;2024-02-26T09:25:51;96996.66;;;12.32;53.91
21401;BME280;18038;50.166;18.908;2024-02-26T09:29:00;96997.34;;;12.27;53.46
21401;BME280;18038;50.166;18.908;2024-02-26T09:32:07;96989.63;;;12.19;53.67
21401;BME280;18038;50.166;18.908;2024-02-26T09:35:16;96991.28;;;12.13;54.28
21401;BME280;18038;50.166;18.908;2024-02-26T09:38:23;96989.16;;;11.97;54.94
21401;BME280;18038;50.166;18.908;2024-02-26T09:41:34;96994.81;;;11.82;55.45
21401;BME280;18038;50.166;18.908;2024-02-26T09:44:44;96996.50;;;12.02;55.78
21401;BME280;18038;50.166;18.908;2024-02-26T09:47:55;96998.03;;;11.91;55.93
21401;BME280;18038;50.166;18.908;2024-02-26T09:51:04;96989.22;;;12.15;55.58
21401;BME280;18038;50.166;18.908;2024-02-26T09:54:15;96989.63;;;12.19;54.62
21401;BME280;18038;50.166;18.908;2024-02-26T09:57:26;96986.19;;;12.12;54.53
21401;BME280;18038;50.166;18.908;2024-02-26T10:00:38;96990.03;;;12.16;54.55
21401;BME280;18038;50.166;18.908;2024-02-26T10:03:52;96981.81;;;12.17;54.21
21401;BME280;18038;50.166;18.908;2024-02-26T10:07:06;96986.28;;;12.24;54.64
21401;BME280;18038;50.166;18.908;2024-02-26T10:10:18;96988.25;;;12.35;54.48
21401;BME280;18038;50.166;18.908;2024-02-26T10:13:29;96985.97;;;12.57;54.65
21401;BME280;18038;50.166;18.908;2024-02-26T10:16:37;96987.66;;;12.33;53.99
21401;BME280;18038;50.166;18.908;2024-02-26T10:19:46;96983.34;;;12.50;54.38
21401;BME280;18038;50.166;18.908;2024-02-26T10:22:55;96979.72;;;12.63;53.96
21401;BME280;18038;50.166;18.908;2024-02-26T10:26:03;96984.47;;;12.79;53.56
21401;BME280;18038;50.166;18.908;2024-02-26T10:29:14;96994.19;;;12.92;53.14
21401;BME280;18038;50.166;18.908;2024-02-26T10:32:22;96979.34;;;13.45;51.87
21401;BME280;18038;50.166;18.908;2024-02-26T10:35:30;96986.59;;;13.56;51.03
21401;BME280;18038;50.166;18.908;2024-02-26T10:38:42;96979.94;;;14.48;49.37
21401;BME280;18038;50.166;18.908;2024-02-26T10:41:50;96987.78;;;14.61;48.59
21401;BME280;18038;50.166;18.908;2024-02-26T10:45:00;96977.75;;;14.56;48.45
21401;BME280;18038;50.166;18.908;2024-02-26T10:48:12;96988.81;;;14.13;49.45
21401;BME280;18038;50.166;18.908;2024-02-26T10:51:29;96974.94;;;14.04;50.65
21401;BME280;18038;50.166;18.908;2024-02-26T10:54:41;96989.50;;;13.96;50.41
21401;BME280;18038;50.166;18.908;2024-02-26T10:57:55;96996.06;;;13.82;50.62
21401;BME280;18038;50.166;18.908;2024-02-26T11:01:06;96985.97;;;13.84;50.89
21401;BME280;18038;50.166;18.908;2024-02-26T11:04:16;96981.97;;;13.63;51.18
21401;BME280;18038;50.166;18.908;2024-02-26T11:07:26;96981.41;;;13.73;51.94
21401;BME280;18038;50.166;18.908;2024-02-26T11:10:37;96974.91;;;13.81;51.46
21401;BME280;18038;50.166;18.908;2024-02-26T11:13:47;96978.94;;;13.71;51.51
21401;BME280;18038;50.166;18.908;2024-02-26T11:17:00;96975.66;;;13.58;51.89
21401;BME280;18038;50.166;18.908;2024-02-26T11:20:10;96974.66;;;13.40;52.30
21401;BME280;18038;50.166;18.908;2024-02-26T11:23:20;96974.81;;;13.45;52.62
21401;BME280;18038;50.166;18.908;2024-02-26T11:26:28;96967.03;;;13.56;52.52
21401;BME280;18038;50.166;18.908;2024-02-26T11:29:41;96960.47;;;13.93;52.36
21401;BME280;18038;50.166;18.908;2024-02-26T11:32:57;96964.69;;;14.01;51.15
21401;BME280;18038;50.166;18.908;2024-02-26T11:36:09;96969.81;;;14.14;51.04
21401;BME280;18038;50.166;18.908;2024-02-26T11:39:18;96969.00;;;14.37;50.19
21401;BME280;18038;50.166;18.908;2024-02-26T11:42:26;96968.31;;;14.42;50.37
21401;BME280;18038;50.166;18.908;2024-02-26T11:45:51;96969.09;;;14.90;50.34
21401;BME280;18038;50.166;18.908;2024-02-26T11:49:30;96969.28;;;15.00;49.68
21401;BME280;18038;50.166;18.908;2024-02-26T11:52:39;96970.84;;;14.72;49.42
21401;BME280;18038;50.166;18.908;2024-02-26T11:55:47;96957.00;;;14.40;50.39
21401;BME280;18038;50.166;18.908;2024-02-26T11:58:58;96955.25;;;14.69;49.92
21401;BME280;18038;50.166;18.908;2024-02-26T12:02:08;96954.91;;;14.54;50.30
21401;BME280;18038;50.166;18.908;2024-02-26T12:05:21;96963.72;;;14.78;49.17
21401;BME280;18038;50.166;18.908;2024-02-26T12:08:35;96958.19;;;14.56;50.82
21401;BME280;18038;50.166;18.908;2024-02-26T12:11:42;96964.09;;;14.46;50.30
21401;BME280;18038;50.166;18.908;2024-02-26T12:14:51;96957.81;;;14.17;51.25
21401;BME280;18038;50.166;18.908;2024-02-26T12:18:01;96961.75;;;13.91;51.91
21401;BME280;18038;50.166;18.908;2024-02-26T12:21:13;96955.34;;;13.80;52.54
21401;BME280;18038;50.166;18.908;2024-02-26T12:24:21;96945.66;;;13.56;52.74
21401;BME280;18038;50.166;18.908;2024-02-26T12:27:30;96966.25;;;13.67;53.49
21401;BME280;18038;50.166;18.908;2024-02-26T12:30:37;96959.03;;;13.56;53.54
21401;BME280;18038;50.166;18.908;2024-02-26T12:33:45;96963.44;;;13.01;54.94
21401;BME280;18038;50.166;18.908;2024-02-26T12:36:55;96965.19;;;12.96;55.20
21401;BME280;18038;50.166;18.908;2024-02-26T12:40:05;96964.34;;;12.95;56.05
21401;BME280;18038;50.166;18.908;2024-02-26T12:43:15;96962.25;;;12.97;55.79
21401;BME280;18038;50.166;18.908;2024-02-26T12:46:24;96971.25;;;12.84;56.56
21401;BME280;18038;50.166;18.908;2024-02-26T12:49:32;96954.41;;;12.84;57.13
21401;BME280;18038;50.166;18.908;2024-02-26T12:52:44;96967.41;;;12.80;57.23
21401;BME280;18038;50.166;18.908;2024-02-26T12:55:53;96964.66;;;12.87;57.34
21401;BME280;18038;50.166;18.908;2024-02-26T12:59:03;96965.19;;;12.96;56.79
21401;BME280;18038;50.166;18.908;2024-02-26T13:02:11;96964.28;;;12.83;57.09
21401;BME280;18038;50.166;18.908;2024-02-26T13:05:20;96967.47;;;12.92;57.14
21401;BME280;18038;50.166;18.908;2024-02-26T13:08:32;96959.22;;;12.94;56.58
21401;BME280;18038;50.166;18.908;2024-02-26T13:11:40;96965.44;;;12.87;56.70
21401;BME280;18038;50.166;18.908;2024-02-26T13:14:48;96963.47;;;12.83;57.24
21401;BME280;18038;50.166;18.908;2024-02-26T13:18:10;96963.84;;;12.86;56.93
21401;BME280;18038;50.166;18.908;2024-02-26T13:21:19;96970.44;;;12.84;56.72
21401;BME280;18038;50.166;18.908;2024-02-26T13:24:31;96964.75;;;12.80;57.25
21401;BME280;18038;50.166;18.908;2024-02-26T13:27:39;96959.75;;;12.84;56.57
21401;BME280;18038;50.166;18.908;2024-02-26T13:30:50;96973.25;;;12.89;56.10
21401;BME280;18038;50.166;18.908;2024-02-26T13:34:00;96970.72;;;12.94;56.41
21401;BME280;18038;50.166;18.908;2024-02-26T13:37:08;96966.69;;;13.03;56.50
21401;BME280;18038;50.166;18.908;2024-02-26T13:40:18;96960.78;;;13.01;56.45
21401;BME280;18038;50.166;18.908;2024-02-26T13:43:26;96962.41;;;13.02;56.52
21401;BME280;18038;50.166;18.908;2024-02-26T13:46:34;96951.03;;;13.07;56.27
21401;BME280;18038;50.166;18.908;2024-02-26T13:49:42;96953.50;;;12.90;56.95
21401;BME280;18038;50.166;18.908;2024-02-26T13:52:49;96961.75;;;12.88;57.11
21401;BME280;18038;50.166;18.908;2024-02-26T13:56:02;96957.56;;;12.93;56.70
21401;BME280;18038;50.166;18.908;2024-02-26T13:59:09;96954.97;;;13.04;57.00
21401;BME280;18038;50.166;18.908;2024-02-26T14:02:17;96957.81;;;12.91;57.10
21401;BME280;18038;50.166;18.908;2024-02-26T14:05:25;96959.69;;;12.91;57.42
21401;BME280;18038;50.166;18.908;2024-02-26T14:08:33;96950.41;;;12.75;58.00
21401;BME280;18038;50.166;18.908;2024-02-26T14:11:43;96955.22;;;12.84;57.91
21401;BME280;18038;50.166;18.908;2024-02-26T14:14:51;96963.97;;;12.92;57.83
21401;BME280;18038;50.166;18.908;2024-02-26T14:18:00;96960.41;;;12.98;57.99
21401;BME280;18038;50.166;18.908;2024-02-26T14:21:09;96966.28;;;13.06;57.89
21401;BME280;18038;50.166;18.908;2024-02-26T14:24:16;96968.63;;;13.15;57.66
21401;BME280;18038;50.166;18.908;2024-02-26T14:27:27;96967.13;;;13.19;57.27
21401;BME280;18038;50.166;18.908;2024-02-26T14:30:35;96968.03;;;13.13;56.93
21401;BME280;18038;50.166;18.908;2024-02-26T14:33:43;96970.25;;;13.16;57.41
21401;BME280;18038;50.166;18.908;2024-02-26T14:36:55;96973.53;;;13.18;57.65
21401;BME280;18038;50.166;18.908;2024-02-26T14:40:04;96970.56;;;13.07;57.87
21401;BME280;18038;50.166;18.908;2024-02-26T14:43:15;96978.44;;;13.02;58.18
21401;BME280;18038;50.166;18.908;2024-02-26T14:46:23;96967.09;;;12.88;58.58
21401;BME280;18038;50.166;18.908;2024-02-26T14:49:30;96965.59;;;12.74;58.92
21401;BME280;18038;50.166;18.908;2024-02-26T14:52:39;96969.03;;;12.81;59.42
21401;BME280;18038;50.166;18.908;2024-02-26T14:55:46;96968.53;;;12.73;59.46
21401;BME280;18038;50.166;18.908;2024-02-26T14:58:57;96968.66;;;12.78;59.26
21401;BME280;18038;50.166;18.908;2024-02-26T15:02:04;96969.69;;;12.77;59.68
21401;BME280;18038;50.166;18.908;2024-02-26T15:05:14;96955.75;;;12.75;59.58
21401;BME280;18038;50.166;18.908;2024-02-26T15:08:23;96962.53;;;12.59;60.40
21401;BME280;18038;50.166;18.908;2024-02-26T15:11:31;96962.28;;;12.42;60.57
21401;BME280;18038;50.166;18.908;2024-02-26T15:14:41;96962.03;;;12.25;61.67
21401;BME280;18038;50.166;18.908;2024-02-26T15:17:50;96966.56;;;12.25;61.55
21401;BME280;18038;50.166;18.908;2024-02-26T15:20:58;96965.91;;;12.48;61.32
21401;BME280;18038;50.166;18.908;2024-02-26T15:24:07;96975.63;;;12.60;61.15
21401;BME280;18038;50.166;18.908;2024-02-26T15:27:15;96976.75;;;12.71;60.59
21401;BME280;18038;50.166;18.908;2024-02-26T15:30:26;96978.00;;;12.69;61.15
21401;BME280;18038;50.166;18.908;2024-02-26T15:33:34;96981.88;;;12.73;60.37
21401;BME280;18038;50.166;18.908;2024-02-26T15:36:42;96982.25;;;12.76;60.44
21401;BME280;18038;50.166;18.908;2024-02-26T15:39:49;96982.38;;;12.81;60.73
21401;BME280;18038;50.166;18.908;2024-02-26T15:42:57;96979.66;;;12.70;60.87
21401;BME280;18038;50.166;18.908;2024-02-26T15:46:07;96987.06;;;12.86;60.59
21401;BME280;18038;50.166;18.908;2024-02-26T15:49:15;96970.75;;;12.76;60.56
21401;BME280;18038;50.166;18.908;2024-02-26T15:52:23;96993.38;;;12.92;60.32
21401;BME280;18038;50.166;18.908;2024-02-26T15:55:32;96993.03;;;12.88;60.64
21401;BME280;18038;50.166;18.908;2024-02-26T15:58:39;96997.91;;;12.91;60.74
21401;BME280;18038;50.166;18.908;2024-02-26T16:01:50;96998.22;;;12.83;60.60
21401;BME280;18038;50.166;18.908;2024-02-26T16:04:58;96990.34;;;12.70;61.43
21401;BME280;18038;50.166;18.908;2024-02-26T16:08:11;96987.88;;;12.50;61.92
21401;BME280;18038;50.166;18.908;2024-02-26T16:11:25;97006.56;;;12.50;62.34
21401;BME280;18038;50.166;18.908;2024-02-26T16:14:42;97015.19;;;12.52;61.81
21401;BME280;18038;50.166;18.908;2024-02-26T16:17:59;97013.16;;;12.47;61.81
21401;BME280;18038;50.166;18.908;2024-02-26T16:21:07;97021.03;;;12.42;62.39
21401;BME280;18038;50.166;18.908;2024-02-26T16:24:15;97020.22;;;12.41;62.47
21401;BME280;18038;50.166;18.908;2024-02-26T16:27:23;97021.09;;;12.35;62.71
21401;BME280;18038;50.166;18.908;2024-02-26T16:30:31;97026.31;;;12.24;62.75
21401;BME280;18038;50.166;18.908;2024-02-26T16:33:42;97022.59;;;12.06;63.20
21401;BME280;18038;50.166;18.908;2024-02-26T16:36:50;97037.28;;;12.15;63.30
21401;BME280;18038;50.166;18.908;2024-02-26T16:40:03;97043.50;;;12.09;63.53